Time;durP1;ratioP1;P1;durP2;ratioP2;P2;SDS_P1;SDS_P2;PMS_P1;PMS_P2;Temp;Humidity;BMP_temperature;BMP_pressure;BME280_temperature;BME280_humidity;BME280_pressure;Samples;Min_cycle;Max_cycle;Signal;HPM_P1;HPM_P2
2021/09/16 00:00:40;;;;;;;;;;;;;;;12.25;75.42;97542.91;116187;1179;60300;-67
2021/09/16 00:03:10;;;;;;;;;;;;;;;12.22;75.77;97547.65;116049;1182;72152;-66
2021/09/16 00:05:40;;;;;;;;;;;;;;;12.19;75.73;97550.15;116065;1182;68518;-66
2021/09/16 00:08:10;;;;;;;;;;;;;;;12.17;77.18;97550.15;116063;1182;68285;-65
2021/09/16 00:10:40;;;;;;;;;;;;;;;12.12;77.41;97551.40;116124;1182;60347;-66
2021/09/16 00:13:09;;;;;;;;;;;;;;;12.10;77.45;97550.87;116410;1180;60296;-64
2021/09/16 00:15:38;;;;;;;;;;;;;;;12.08;80.25;97550.71;116040;1182;71956;-65
2021/09/16 00:18:08;;;;;;;;;;;;;;;12.06;78.98;97550.37;116016;1182;69096;-67
2021/09/16 00:20:38;;;;;;;;;;;;;;;12.03;76.22;97551.27;116052;1178;69436;-67
2021/09/16 00:23:08;;;;;;;;;;;;;;;11.97;76.19;97547.84;115982;1182;60773;-66
2021/09/16 00:25:38;;;;;;;;;;;;;;;11.95;75.24;97548.57;116067;1181;60273;-66
2021/09/16 00:28:08;;;;;;;;;;;;;;;11.91;75.25;97547.79;116075;1182;71346;-67
2021/09/16 00:30:38;;;;;;;;;;;;;;;11.88;74.88;97549.92;116069;1182;69589;-65
2021/09/16 00:33:08;;;;;;;;;;;;;;;11.86;75.95;97550.66;116022;1182;69214;-66
2021/09/16 00:35:38;;;;;;;;;;;;;;;11.82;74.69;97551.77;116034;1183;60375;-66
2021/09/16 00:38:09;;;;;;;;;;;;;;;11.78;75.87;97553.35;116014;1182;60338;-66
2021/09/16 00:40:39;;;;;;;;;;;;;;;11.71;76.47;97555.35;116033;1179;71354;-64
2021/09/16 00:43:09;;;;;;;;;;;;;;;11.67;77.22;97554.11;116072;1181;68413;-66
2021/09/16 00:45:40;;;;;;;;;;;;;;;11.62;78.13;97555.20;116205;1182;68716;-66
2021/09/16 00:48:11;;;;;;;;;;;;;;;11.60;77.36;97555.89;116220;1181;60361;-65
2021/09/16 00:50:41;;;;;;;;;;;;;;;11.58;77.09;97556.72;116319;1179;60322;-66
2021/09/16 00:53:11;;;;;;;;;;;;;;;11.56;78.85;97552.70;116327;1182;72037;-66
2021/09/16 00:55:42;;;;;;;;;;;;;;;11.53;81.22;97553.98;116182;1180;69195;-66
2021/09/16 00:58:12;;;;;;;;;;;;;;;11.51;79.80;97549.22;116063;1182;69048;-66
2021/09/16 01:00:43;;;;;;;;;;;;;;;11.51;77.94;97542.27;116035;1178;60358;-66
2021/09/16 01:03:13;;;;;;;;;;;;;;;11.52;76.51;97544.09;116061;1181;60347;-66
2021/09/16 01:05:42;;;;;;;;;;;;;;;11.54;79.46;97544.48;116031;1182;71455;-66
2021/09/16 01:08:13;;;;;;;;;;;;;;;11.51;80.41;97540.00;116070;1182;69109;-66
2021/09/16 01:10:48;;;;;;;;;;;;;;;11.50;78.31;97541.79;116052;1183;68407;-66
2021/09/16 01:13:18;;;;;;;;;;;;;;;11.54;77.73;97543.44;116125;1182;60288;-66
2021/09/16 01:15:48;;;;;;;;;;;;;;;11.52;77.96;97543.77;116034;1182;60997;-67
2021/09/16 01:18:18;;;;;;;;;;;;;;;11.51;77.77;97544.68;116092;1182;72153;-66
2021/09/16 01:20:48;;;;;;;;;;;;;;;11.51;78.87;97541.17;116133;1182;69317;-65
2021/09/16 01:23:18;;;;;;;;;;;;;;;11.46;79.08;97541.17;116061;1182;68256;-65
2021/09/16 01:25:48;;;;;;;;;;;;;;;11.44;79.60;97538.94;116103;1182;60315;-66
2021/09/16 01:28:20;;;;;;;;;;;;;;;11.38;79.45;97536.02;116118;1182;60757;-66
2021/09/16 01:30:51;;;;;;;;;;;;;;;11.34;79.85;97537.05;115997;1182;72164;-65
2021/09/16 01:33:21;;;;;;;;;;;;;;;11.32;81.52;97532.17;116160;1182;69151;-65
2021/09/16 01:35:52;;;;;;;;;;;;;;;11.27;83.37;97531.60;116134;1182;68390;-66
2021/09/16 01:38:22;;;;;;;;;;;;;;;11.26;82.52;97527.02;116170;1182;60362;-66
2021/09/16 01:40:52;;;;;;;;;;;;;;;11.25;82.99;97529.20;116091;1179;60789;-66
2021/09/16 01:43:22;;;;;;;;;;;;;;;11.24;81.70;97528.18;116069;1182;72124;-66
2021/09/16 01:45:52;;;;;;;;;;;;;;;11.23;81.84;97529.47;116052;1182;69360;-65
2021/09/16 01:48:23;;;;;;;;;;;;;;;11.21;81.63;97532.19;116139;1182;68417;-66
2021/09/16 01:50:53;;;;;;;;;;;;;;;11.21;80.90;97531.18;116088;1178;60404;-66
2021/09/16 01:53:23;;;;;;;;;;;;;;;11.19;81.38;97528.88;116147;1182;60382;-66
2021/09/16 01:55:53;;;;;;;;;;;;;;;11.19;82.35;97524.85;116119;1182;72126;-66
2021/09/16 01:58:23;;;;;;;;;;;;;;;11.19;80.77;97523.52;116174;1182;69153;-67
2021/09/16 02:00:53;;;;;;;;;;;;;;;11.19;82.26;97526.48;116258;1182;69206;-66
2021/09/16 02:03:24;;;;;;;;;;;;;;;11.17;82.17;97523.77;116227;1182;61275;-64
2021/09/16 02:05:54;;;;;;;;;;;;;;;11.17;80.57;97517.37;116104;1182;60281;-65
2021/09/16 02:08:26;;;;;;;;;;;;;;;11.18;78.78;97513.08;116337;1179;71501;-66
2021/09/16 02:10:57;;;;;;;;;;;;;;;11.20;79.04;97512.77;116113;1182;69160;-66
2021/09/16 02:13:28;;;;;;;;;;;;;;;11.18;81.17;97512.20;116119;1179;68331;-65
2021/09/16 02:15:57;;;;;;;;;;;;;;;11.16;82.28;97511.64;116329;1180;61023;-66
2021/09/16 02:18:28;;;;;;;;;;;;;;;11.16;82.04;97513.06;116105;1179;60335;-65
2021/09/16 02:20:58;;;;;;;;;;;;;;;11.15;80.81;97516.26;116345;1183;72080;-65
2021/09/16 02:23:30;;;;;;;;;;;;;;;11.15;81.16;97515.28;116095;1182;67662;-66
2021/09/16 02:26:00;;;;;;;;;;;;;;;11.14;81.36;97510.26;116093;1182;69171;-66
2021/09/16 02:28:31;;;;;;;;;;;;;;;11.15;81.02;97511.77;116035;1179;60357;-64
2021/09/16 02:31:01;;;;;;;;;;;;;;;11.16;78.73;97512.92;116041;1180;60304;-65
2021/09/16 02:33:32;;;;;;;;;;;;;;;11.14;79.57;97513.02;116083;1181;71915;-66
2021/09/16 02:36:02;;;;;;;;;;;;;;;11.12;79.97;97509.84;116347;1182;69147;-65
2021/09/16 02:38:33;;;;;;;;;;;;;;;11.11;79.64;97510.66;116088;1182;69250;-65
2021/09/16 02:41:03;;;;;;;;;;;;;;;11.08;80.45;97509.13;116021;1182;60362;-66
2021/09/16 02:43:33;;;;;;;;;;;;;;;11.06;78.98;97512.27;116067;1181;60316;-66
2021/09/16 02:46:03;;;;;;;;;;;;;;;11.05;78.18;97513.71;116071;1181;72029;-65
2021/09/16 02:48:33;;;;;;;;;;;;;;;11.03;80.14;97516.48;116295;1182;69162;-65
2021/09/16 02:51:03;;;;;;;;;;;;;;;11.00;80.54;97518.25;116365;1178;69252;-65
2021/09/16 02:53:33;;;;;;;;;;;;;;;10.99;80.55;97515.54;116236;1181;60335;-65
2021/09/16 02:56:03;;;;;;;;;;;;;;;10.99;79.56;97515.90;116308;1181;59563;-66
2021/09/16 02:58:33;;;;;;;;;;;;;;;10.99;79.32;97513.43;116090;1182;71240;-66
2021/09/16 03:01:03;;;;;;;;;;;;;;;10.99;78.70;97508.89;116062;1181;68382;-65
2021/09/16 03:03:33;;;;;;;;;;;;;;;10.97;78.87;97501.55;116364;1182;68215;-65
2021/09/16 03:06:03;;;;;;;;;;;;;;;10.94;78.47;97502.11;116241;1183;60325;-65
2021/09/16 03:08:33;;;;;;;;;;;;;;;10.90;79.64;97504.69;116101;1181;60283;-65
2021/09/16 03:11:03;;;;;;;;;;;;;;;10.85;80.79;97507.46;116078;1182;71404;-66
2021/09/16 03:13:33;;;;;;;;;;;;;;;10.83;79.17;97510.81;116061;1181;68386;-65
2021/09/16 03:16:03;;;;;;;;;;;;;;;10.80;79.57;97510.95;116103;1179;69238;-64
2021/09/16 03:18:33;;;;;;;;;;;;;;;10.79;80.16;97513.50;116326;1180;60348;-65
2021/09/16 03:21:03;;;;;;;;;;;;;;;10.79;80.56;97514.41;116050;1181;60335;-66
2021/09/16 03:23:33;;;;;;;;;;;;;;;10.78;80.26;97520.04;116050;1182;71337;-66
2021/09/16 03:26:02;;;;;;;;;;;;;;;10.78;80.40;97517.95;116079;1182;68969;-65
2021/09/16 03:28:34;;;;;;;;;;;;;;;10.78;81.47;97520.06;116026;1178;69550;-65
2021/09/16 03:31:03;;;;;;;;;;;;;;;10.78;80.47;97519.85;116540;1181;60247;-66
2021/09/16 03:33:32;;;;;;;;;;;;;;;10.78;79.63;97516.92;115956;1183;60344;-66
2021/09/16 03:36:02;;;;;;;;;;;;;;;10.77;79.22;97519.91;116177;1179;71947;-66
2021/09/16 03:38:32;;;;;;;;;;;;;;;10.76;80.44;97521.08;116012;1182;68607;-66
2021/09/16 03:41:02;;;;;;;;;;;;;;;10.73;79.84;97520.73;116018;1182;68456;-66
2021/09/16 03:43:31;;;;;;;;;;;;;;;10.72;79.90;97522.37;116070;1182;60350;-65
2021/09/16 03:46:00;;;;;;;;;;;;;;;10.71;79.40;97524.86;116111;1181;60814;-65
2021/09/16 03:48:30;;;;;;;;;;;;;;;10.70;79.18;97528.20;116077;1182;71328;-66
2021/09/16 03:51:00;;;;;;;;;;;;;;;10.70;79.35;97521.96;116122;1182;69140;-68
2021/09/16 03:53:29;;;;;;;;;;;;;;;10.69;79.37;97521.02;115999;1181;69028;-65
2021/09/16 03:55:59;;;;;;;;;;;;;;;10.68;78.45;97521.05;116188;1182;60371;-66
2021/09/16 03:58:28;;;;;;;;;;;;;;;10.66;80.18;97523.45;116069;1179;60286;-64
2021/09/16 04:00:57;;;;;;;;;;;;;;;10.63;80.70;97527.33;116112;1182;71424;-65
2021/09/16 04:03:27;;;;;;;;;;;;;;;10.58;82.75;97528.75;116133;1181;68205;-66
2021/09/16 04:05:57;;;;;;;;;;;;;;;10.48;82.57;97529.32;116031;1181;68272;-64
2021/09/16 04:08:26;;;;;;;;;;;;;;;10.38;82.04;97527.74;116169;1181;60392;-65
2021/09/16 04:10:56;;;;;;;;;;;;;;;10.34;82.07;97527.01;116157;1178;60276;-65
2021/09/16 04:13:26;;;;;;;;;;;;;;;10.30;81.56;97526.88;116149;1181;71223;-65
2021/09/16 04:15:55;;;;;;;;;;;;;;;10.31;80.88;97526.33;116005;1184;69104;-66
2021/09/16 04:18:25;;;;;;;;;;;;;;;10.34;81.00;97529.95;116041;1182;69121;-65
2021/09/16 04:20:55;;;;;;;;;;;;;;;10.37;80.48;97533.90;116044;1180;60337;-65
2021/09/16 04:23:27;;;;;;;;;;;;;;;10.42;79.04;97534.57;116368;1181;60343;-65
2021/09/16 04:25:57;;;;;;;;;;;;;;;10.49;79.33;97541.40;115982;1182;72140;-65
2021/09/16 04:28:26;;;;;;;;;;;;;;;10.55;79.38;97538.70;116077;1182;68299;-65
2021/09/16 04:30:55;;;;;;;;;;;;;;;10.65;79.68;97539.39;116076;1181;69025;-66
2021/09/16 04:33:24;;;;;;;;;;;;;;;10.74;80.04;97544.89;116015;1179;60336;-66
2021/09/16 04:35:54;;;;;;;;;;;;;;;10.84;79.71;97545.41;116104;1178;60292;-65
2021/09/16 04:38:24;;;;;;;;;;;;;;;10.91;79.90;97545.44;116078;1181;71968;-65
2021/09/16 04:40:54;;;;;;;;;;;;;;;10.97;80.06;97548.28;116064;1183;68384;-65
2021/09/16 04:43:23;;;;;;;;;;;;;;;11.09;79.15;97548.48;116056;1182;69260;-65
2021/09/16 04:45:52;;;;;;;;;;;;;;;11.25;78.83;97547.64;116370;1179;60328;-65
2021/09/16 04:48:21;;;;;;;;;;;;;;;11.44;78.61;97549.88;116058;1181;60359;-65
2021/09/16 04:50:50;;;;;;;;;;;;;;;11.66;78.17;97548.30;116069;1181;72065;-65
2021/09/16 04:53:20;;;;;;;;;;;;;;;11.91;77.73;97547.66;116112;1181;68972;-67
2021/09/16 04:55:49;;;;;;;;;;;;;;;12.17;77.03;97548.82;116174;1182;67417;-65
2021/09/16 04:58:19;;;;;;;;;;;;;;;12.43;76.77;97546.05;116255;1179;60293;-65
2021/09/16 05:00:49;;;;;;;;;;;;;;;12.68;75.42;97547.80;116299;1179;60369;-65
2021/09/16 05:03:19;;;;;;;;;;;;;;;12.94;74.69;97553.08;116310;1181;70978;-65
2021/09/16 05:05:48;;;;;;;;;;;;;;;13.21;74.27;97552.46;116269;1181;69213;-66
2021/09/16 05:08:17;;;;;;;;;;;;;;;13.52;74.18;97550.77;116221;1181;69071;-66
2021/09/16 05:10:46;;;;;;;;;;;;;;;13.90;74.43;97554.17;116430;1181;60333;-66
2021/09/16 05:13:16;;;;;;;;;;;;;;;14.25;73.14;97559.38;116409;1181;60307;-67
2021/09/16 05:15:45;;;;;;;;;;;;;;;14.49;71.27;97558.94;116236;1181;71334;-65
2021/09/16 05:18:15;;;;;;;;;;;;;;;14.69;72.32;97557.19;116248;1181;68674;-66
2021/09/16 05:20:44;;;;;;;;;;;;;;;14.92;67.33;97560.28;116238;1181;69123;-66
2021/09/16 05:23:14;;;;;;;;;;;;;;;15.11;67.64;97559.26;116221;1182;60406;-68
2021/09/16 05:25:43;;;;;;;;;;;;;;;15.32;67.01;97554.06;116281;1182;60338;-66
2021/09/16 05:28:12;;;;;;;;;;;;;;;15.63;67.94;97553.02;116185;1181;71158;-66
2021/09/16 05:30:41;;;;;;;;;;;;;;;15.95;66.31;97549.45;116275;1181;69247;-65
2021/09/16 05:33:10;;;;;;;;;;;;;;;16.23;65.90;97552.48;116187;1183;69210;-66
2021/09/16 05:35:40;;;;;;;;;;;;;;;16.37;63.57;97550.95;116186;1181;60304;-66
2021/09/16 05:38:09;;;;;;;;;;;;;;;16.63;65.20;97550.27;116223;1181;60409;-65
2021/09/16 05:40:39;;;;;;;;;;;;;;;16.99;64.02;97554.52;116212;1182;72082;-67
2021/09/16 05:43:08;;;;;;;;;;;;;;;17.37;64.54;97551.35;116242;1181;68962;-66
2021/09/16 05:45:38;;;;;;;;;;;;;;;17.70;61.05;97551.36;116217;1181;68462;-66
2021/09/16 05:48:07;;;;;;;;;;;;;;;17.99;61.59;97548.03;116221;1182;60350;-66
2021/09/16 05:50:36;;;;;;;;;;;;;;;18.46;61.32;97552.25;116252;1183;60328;-67
2021/09/16 05:53:06;;;;;;;;;;;;;;;18.93;60.88;97550.73;116205;1181;71721;-66
2021/09/16 05:55:39;;;;;;;;;;;;;;;19.36;58.36;97551.84;116214;1181;68327;-66
2021/09/16 05:58:08;;;;;;;;;;;;;;;19.60;57.97;97547.17;116306;1181;69182;-67
2021/09/16 06:00:37;;;;;;;;;;;;;;;19.92;56.18;97555.58;116193;1181;60327;-67
2021/09/16 06:03:06;;;;;;;;;;;;;;;20.15;56.47;97553.78;116279;1182;60303;-67
2021/09/16 06:05:36;;;;;;;;;;;;;;;20.48;55.53;97560.81;116239;1181;71816;-67
2021/09/16 06:08:05;;;;;;;;;;;;;;;20.81;55.74;97562.39;116164;1180;69400;-67
2021/09/16 06:10:35;;;;;;;;;;;;;;;21.04;56.43;97565.31;116216;1179;68464;-66
2021/09/16 06:13:04;;;;;;;;;;;;;;;21.31;55.15;97565.96;116233;1181;60343;-66
2021/09/16 06:15:34;;;;;;;;;;;;;;;21.33;51.06;97562.02;116238;1181;60336;-66
2021/09/16 06:18:03;;;;;;;;;;;;;;;21.23;52.12;97562.89;116213;1181;72137;-67
2021/09/16 06:20:32;;;;;;;;;;;;;;;21.50;51.46;97563.59;116098;1181;69119;-66
2021/09/16 06:23:01;;;;;;;;;;;;;;;21.86;52.47;97564.35;116158;1183;69269;-66
2021/09/16 06:25:30;;;;;;;;;;;;;;;22.15;50.08;97563.31;116187;1181;60352;-66
2021/09/16 06:28:00;;;;;;;;;;;;;;;22.03;48.80;97565.80;116141;1178;60342;-67
2021/09/16 06:30:29;;;;;;;;;;;;;;;21.79;50.15;97564.64;116164;1182;71993;-67
2021/09/16 06:32:58;;;;;;;;;;;;;;;21.77;50.38;97565.64;116238;1181;68236;-67
2021/09/16 06:35:28;;;;;;;;;;;;;;;21.14;51.38;97565.37;116127;1182;68664;-67
2021/09/16 06:37:57;;;;;;;;;;;;;;;21.15;51.77;97564.04;116222;1184;60346;-68
2021/09/16 06:40:28;;;;;;;;;;;;;;;21.30;51.81;97563.96;116269;1180;60326;-67
2021/09/16 06:42:59;;;;;;;;;;;;;;;21.56;51.21;97564.88;116286;1182;72127;-66
2021/09/16 06:45:28;;;;;;;;;;;;;;;21.82;51.13;97562.39;116244;1178;69151;-67
2021/09/16 06:47:59;;;;;;;;;;;;;;;22.02;50.36;97562.48;116168;1182;69506;-68
2021/09/16 06:50:28;;;;;;;;;;;;;;;22.23;50.19;97564.34;116280;1180;60334;-67
2021/09/16 06:52:57;;;;;;;;;;;;;;;22.23;50.07;97564.48;116259;1178;60278;-67
2021/09/16 06:55:26;;;;;;;;;;;;;;;22.73;50.35;97566.11;116260;1183;71375;-68
2021/09/16 06:57:55;;;;;;;;;;;;;;;23.15;48.50;97563.05;116279;1179;69265;-68
2021/09/16 07:00:24;;;;;;;;;;;;;;;23.66;46.82;97567.31;116214;1182;69081;-66
2021/09/16 07:02:53;;;;;;;;;;;;;;;24.02;47.39;97567.60;116181;1182;60336;-70
2021/09/16 07:05:22;;;;;;;;;;;;;;;24.46;45.16;97570.60;116327;1178;60360;-67
2021/09/16 07:07:51;;;;;;;;;;;;;;;24.57;43.78;97573.41;116274;1183;72208;-69
2021/09/16 07:10:20;;;;;;;;;;;;;;;24.28;44.18;97580.17;116244;1182;68608;-67
2021/09/16 07:12:49;;;;;;;;;;;;;;;23.58;44.76;97584.54;116258;1182;69045;-67
2021/09/16 07:15:18;;;;;;;;;;;;;;;23.12;46.30;97584.91;116316;1181;60772;-67
2021/09/16 07:17:47;;;;;;;;;;;;;;;23.76;46.27;97585.96;116255;1182;60343;-67
2021/09/16 07:20:16;;;;;;;;;;;;;;;23.54;45.46;97582.55;116081;1184;72182;-67
2021/09/16 07:22:45;;;;;;;;;;;;;;;23.23;46.26;97579.54;116246;1181;69137;-67
2021/09/16 07:25:14;;;;;;;;;;;;;;;22.92;47.06;97577.89;116201;1178;69221;-67
2021/09/16 07:27:44;;;;;;;;;;;;;;;23.50;46.28;97577.89;116300;1183;60289;-67
2021/09/16 07:30:13;;;;;;;;;;;;;;;23.43;46.16;97574.42;116276;1180;60247;-67
2021/09/16 07:32:42;;;;;;;;;;;;;;;23.28;46.60;97574.11;116277;1179;72527;-66
2021/09/16 07:35:11;;;;;;;;;;;;;;;23.47;46.16;97573.42;116256;1179;67353;-67
2021/09/16 07:37:40;;;;;;;;;;;;;;;23.72;45.96;97572.88;116353;1180;68290;-67
2021/09/16 07:40:10;;;;;;;;;;;;;;;24.07;45.18;97569.05;116295;1178;60695;-67
2021/09/16 07:42:39;;;;;;;;;;;;;;;24.05;44.86;97570.37;116289;1182;60335;-67
2021/09/16 07:45:08;;;;;;;;;;;;;;;24.11;44.49;97566.15;116212;1182;72009;-67
2021/09/16 07:47:37;;;;;;;;;;;;;;;24.34;43.93;97568.99;116223;1181;68247;-69
2021/09/16 07:50:07;;;;;;;;;;;;;;;24.79;43.16;97570.59;116350;1182;68443;-67
2021/09/16 07:52:35;;;;;;;;;;;;;;;24.61;43.09;97570.55;116299;1182;60344;-67
2021/09/16 07:55:05;;;;;;;;;;;;;;;25.16;41.10;97574.36;116295;1179;60359;-67
2021/09/16 07:57:34;;;;;;;;;;;;;;;24.65;42.24;97571.05;116241;1178;71961;-67
2021/09/16 08:00:04;;;;;;;;;;;;;;;24.75;42.61;97567.01;116295;1182;69116;-67
2021/09/16 08:02:48;;;;;;;;;;;;;;;25.10;41.64;97565.67;116296;1181;68474;-67
2021/09/16 08:05:18;;;;;;;;;;;;;;;25.45;40.92;97569.17;116348;1181;60396;-67
2021/09/16 08:07:47;;;;;;;;;;;;;;;26.37;39.64;97564.17;116370;1181;60363;-67
2021/09/16 08:10:16;;;;;;;;;;;;;;;26.78;37.64;97566.72;116318;1179;71282;-67
2021/09/16 08:12:45;;;;;;;;;;;;;;;26.85;37.62;97567.30;116300;1178;69002;-67
2021/09/16 08:15:15;;;;;;;;;;;;;;;27.28;36.44;97562.95;116267;1181;68580;-67
2021/09/16 08:17:44;;;;;;;;;;;;;;;27.57;36.15;97557.98;116311;1181;60385;-67
2021/09/16 08:20:14;;;;;;;;;;;;;;;28.00;36.07;97548.69;116296;1181;60359;-67
2021/09/16 08:22:44;;;;;;;;;;;;;;;27.90;34.42;97551.20;116325;1179;71552;-67
2021/09/16 08:25:14;;;;;;;;;;;;;;;28.01;34.17;97548.02;116258;1182;69223;-68
2021/09/16 08:27:43;;;;;;;;;;;;;;;28.35;35.24;97548.02;116196;1178;68556;-68
2021/09/16 08:30:13;;;;;;;;;;;;;;;28.61;34.46;97545.54;116337;1182;60370;-68
2021/09/16 08:32:41;;;;;;;;;;;;;;;27.25;34.94;97549.58;116400;1181;60374;-67
2021/09/16 08:35:11;;;;;;;;;;;;;;;27.12;35.73;97551.54;116272;1179;71379;-67
2021/09/16 08:37:40;;;;;;;;;;;;;;;27.87;35.75;97549.60;116282;1179;68363;-66
2021/09/16 08:40:09;;;;;;;;;;;;;;;28.56;34.40;97545.41;116348;1179;69186;-67
2021/09/16 08:42:40;;;;;;;;;;;;;;;29.06;33.10;97542.92;116274;1183;60345;-67
2021/09/16 08:45:13;;;;;;;;;;;;;;;29.52;32.44;97543.02;116317;1181;60358;-68
2021/09/16 08:47:43;;;;;;;;;;;;;;;30.17;32.02;97538.45;116344;1182;72162;-68
2021/09/16 08:50:13;;;;;;;;;;;;;;;30.65;30.17;97533.13;116356;1178;68943;-67
2021/09/16 08:52:43;;;;;;;;;;;;;;;30.64;30.05;97531.83;116213;1182;69548;-67
2021/09/16 08:55:13;;;;;;;;;;;;;;;30.36;30.98;97529.08;116277;1181;60353;-68
2021/09/16 08:57:43;;;;;;;;;;;;;;;31.10;29.58;97531.88;116307;1180;60347;-70
2021/09/16 09:00:14;;;;;;;;;;;;;;;30.89;29.85;97530.42;116352;1179;71999;-67
2021/09/16 09:02:44;;;;;;;;;;;;;;;30.77;29.50;97526.04;116281;1181;69304;-68
2021/09/16 09:05:13;;;;;;;;;;;;;;;30.55;30.02;97525.41;116172;1181;69081;-68
2021/09/16 09:07:44;;;;;;;;;;;;;;;31.27;28.69;97525.20;116228;1181;60420;-70
2021/09/16 09:10:32;;;;;;;;;;;;;;;31.36;28.39;97523.11;116313;1181;60302;-67
2021/09/16 09:13:01;;;;;;;;;;;;;;;31.10;28.89;97522.54;116321;1178;71435;-68
2021/09/16 09:15:30;;;;;;;;;;;;;;;31.40;28.95;97519.07;116303;1181;68993;-67
2021/09/16 09:18:08;;;;;;;;;;;;;;;30.80;29.53;97522.19;116257;1182;69148;-68
2021/09/16 09:20:55;;;;;;;;;;;;;;;30.10;29.98;97517.63;116273;1179;60301;-68
2021/09/16 09:23:28;;;;;;;;;;;;;;;30.58;29.27;97519.49;116362;1181;60369;-68
2021/09/16 09:25:58;;;;;;;;;;;;;;;30.98;28.67;97518.52;116280;1178;70368;-68
2021/09/16 09:28:32;;;;;;;;;;;;;;;31.55;27.40;97518.01;116297;1179;69559;-68
2021/09/16 09:31:13;;;;;;;;;;;;;;;31.64;26.38;97515.58;116269;1182;68462;-68
2021/09/16 09:33:42;;;;;;;;;;;;;;;31.82;26.61;97512.98;116257;1181;60336;-67
2021/09/16 09:36:20;;;;;;;;;;;;;;;32.20;26.02;97507.41;116242;1181;60272;-68
2021/09/16 09:39:01;;;;;;;;;;;;;;;32.15;26.17;97505.84;116291;1181;71962;-69
2021/09/16 09:41:34;;;;;;;;;;;;;;;31.95;26.06;97507.83;116315;1181;68235;-69
2021/09/16 09:44:07;;;;;;;;;;;;;;;31.16;27.54;97507.88;116168;1183;69332;-68
2021/09/16 09:46:50;;;;;;;;;;;;;;;31.83;26.57;97507.96;116369;1182;60341;-68
2021/09/16 09:49:24;;;;;;;;;;;;;;;32.30;27.37;97503.84;116289;1179;60386;-68
2021/09/16 09:51:58;;;;;;;;;;;;;;;32.84;25.74;97505.45;116290;1181;72165;-67
2021/09/16 09:54:32;;;;;;;;;;;;;;;32.58;25.67;97502.17;116190;1179;69471;-70
2021/09/16 09:57:02;;;;;;;;;;;;;;;32.13;26.21;97504.05;116276;1182;68408;-68
2021/09/16 09:59:49;;;;;;;;;;;;;;;32.49;25.71;97500.75;116326;1180;60752;-69
2021/09/16 10:02:19;;;;;;;;;;;;;;;32.62;26.01;97497.04;116274;1181;60367;-68
2021/09/16 10:04:49;;;;;;;;;;;;;;;31.98;26.24;97492.67;116351;1181;71707;-68
2021/09/16 10:07:30;;;;;;;;;;;;;;;30.23;28.23;97495.28;116352;1176;69304;-70
2021/09/16 10:10:01;;;;;;;;;;;;;;;30.75;26.87;97494.55;116316;1181;68360;-69
2021/09/16 10:12:30;;;;;;;;;;;;;;;31.75;25.97;97496.14;116305;1181;60344;-68
2021/09/16 10:15:07;;;;;;;;;;;;;;;32.01;26.23;97495.95;116409;1181;60275;-69
2021/09/16 10:17:36;;;;;;;;;;;;;;;32.65;25.32;97489.36;116278;1181;71979;-70
2021/09/16 10:20:07;;;;;;;;;;;;;;;31.21;27.61;97492.51;116249;1179;68447;-68
2021/09/16 10:22:37;;;;;;;;;;;;;;;30.50;28.37;97489.62;116275;1181;69183;-69
2021/09/16 10:25:07;;;;;;;;;;;;;;;31.16;27.52;97485.30;116234;1181;60375;-68
2021/09/16 10:27:38;;;;;;;;;;;;;;;32.35;26.71;97482.00;116356;1178;60405;-68
2021/09/16 10:30:28;;;;;;;;;;;;;;;33.53;25.23;97482.67;116215;1181;72180;-68
2021/09/16 10:32:57;;;;;;;;;;;;;;;34.62;24.19;97476.48;116215;1182;69210;-68
2021/09/16 10:35:26;;;;;;;;;;;;;;;35.14;23.19;97479.48;116242;1182;69119;-68
2021/09/16 10:37:55;;;;;;;;;;;;;;;35.21;22.93;97476.67;116150;1179;60401;-68
2021/09/16 10:40:29;;;;;;;;;;;;;;;35.23;22.62;97477.39;116271;1182;60381;-71
2021/09/16 10:42:59;;;;;;;;;;;;;;;35.63;22.09;97480.41;116265;1180;72179;-68
2021/09/16 10:45:29;;;;;;;;;;;;;;;34.81;22.83;97472.39;116290;1181;69189;-68
2021/09/16 10:48:21;;;;;;;;;;;;;;;34.60;22.81;97472.77;116175;1179;68256;-69
2021/09/16 10:50:53;;;;;;;;;;;;;;;34.14;22.87;97466.48;116257;1181;60529;-68
2021/09/16 10:53:37;;;;;;;;;;;;;;;33.61;24.54;97464.77;116309;1181;60333;-72
2021/09/16 10:56:26;;;;;;;;;;;;;;;34.07;23.86;97463.62;116240;1179;72140;-70
2021/09/16 10:58:56;;;;;;;;;;;;;;;34.47;23.30;97457.93;116268;1178;68427;-69
2021/09/16 11:01:43;;;;;;;;;;;;;;;35.59;22.42;97459.30;116279;1181;68853;-70
2021/09/16 11:04:12;;;;;;;;;;;;;;;35.89;21.16;97458.55;116248;1181;60288;-69
2021/09/16 11:06:42;;;;;;;;;;;;;;;35.60;21.40;97456.90;116298;1178;60278;-68
2021/09/16 11:09:14;;;;;;;;;;;;;;;35.16;21.62;97457.31;116245;1181;71168;-68
2021/09/16 11:11:49;;;;;;;;;;;;;;;34.99;21.56;97450.64;116275;1178;68985;-69
2021/09/16 11:14:28;;;;;;;;;;;;;;;35.64;21.37;97448.91;116248;1182;69205;-69
2021/09/16 11:16:58;;;;;;;;;;;;;;;35.01;22.74;97449.99;116186;1182;60348;-69
2021/09/16 11:19:27;;;;;;;;;;;;;;;34.40;22.88;97448.59;116335;1181;60346;-68
2021/09/16 11:22:04;;;;;;;;;;;;;;;35.49;21.45;97445.80;116253;1178;72180;-68
2021/09/16 11:24:42;;;;;;;;;;;;;;;36.31;20.52;97438.64;116217;1178;69288;-68
2021/09/16 11:27:21;;;;;;;;;;;;;;;36.10;20.35;97437.95;116262;1181;68295;-69
2021/09/16 11:29:51;;;;;;;;;;;;;;;36.63;19.85;97431.15;116266;1181;60345;-69
2021/09/16 11:32:20;;;;;;;;;;;;;;;37.04;19.54;97427.15;116324;1181;60331;-69
2021/09/16 11:34:50;;;;;;;;;;;;;;;36.17;20.04;97424.95;116348;1181;71454;-68
2021/09/16 11:37:22;;;;;;;;;;;;;;;36.75;19.39;97422.33;116304;1181;69023;-69
2021/09/16 11:39:56;;;;;;;;;;;;;;;36.71;19.25;97422.56;116315;1181;69446;-69
2021/09/16 11:42:25;;;;;;;;;;;;;;;37.13;18.97;97416.58;116207;1182;60346;-67
2021/09/16 11:45:08;;;;;;;;;;;;;;;37.79;17.95;97415.05;116267;1178;60343;-68
2021/09/16 11:47:39;;;;;;;;;;;;;;;38.33;17.82;97410.60;116264;1177;71396;-69
2021/09/16 11:50:10;;;;;;;;;;;;;;;38.68;17.45;97410.46;116267;1181;69201;-68
2021/09/16 11:52:39;;;;;;;;;;;;;;;38.41;17.68;97404.23;116271;1178;69052;-69
2021/09/16 11:55:10;;;;;;;;;;;;;;;38.52;17.58;97402.95;116254;1181;60359;-68
2021/09/16 11:58:11;;;;;;;;;;;;;;;38.79;17.54;97401.73;116247;1182;60317;-68
2021/09/16 12:00:42;;;;;;;;;;;;;;;38.28;17.66;97403.54;115840;1187;71181;-68
2021/09/16 12:03:12;;;;;;;;;;;;;;;37.95;17.97;97400.16;115891;1183;68424;-68
2021/09/16 12:05:43;;;;;;;;;;;;;;;38.57;17.17;97395.46;115902;1182;68295;-69
2021/09/16 12:08:22;;;;;;;;;;;;;;;39.11;16.92;97393.70;115964;1180;60368;-68
2021/09/16 12:11:01;;;;;;;;;;;;;;;38.94;16.89;97395.03;116060;1184;60290;-69
2021/09/16 12:13:32;;;;;;;;;;;;;;;37.51;17.89;97386.92;115988;1185;71423;-69
2021/09/16 12:16:03;;;;;;;;;;;;;;;36.44;18.51;97380.06;115985;1181;68740;-68
2021/09/16 12:18:36;;;;;;;;;;;;;;;37.60;17.63;97377.08;115979;1185;69163;-69
2021/09/16 12:21:06;;;;;;;;;;;;;;;38.44;17.32;97371.55;115966;1181;60366;-69
2021/09/16 12:23:36;;;;;;;;;;;;;;;39.03;16.58;97369.73;115931;1182;60334;-70
2021/09/16 12:26:05;;;;;;;;;;;;;;;39.63;16.08;97368.77;115885;1185;72053;-69
2021/09/16 12:28:48;;;;;;;;;;;;;;;39.80;15.91;97366.30;115951;1181;68222;-68
2021/09/16 12:31:20;;;;;;;;;;;;;;;39.46;15.88;97364.50;115917;1185;69106;-69
2021/09/16 12:34:11;;;;;;;;;;;;;;;39.03;16.03;97367.52;115938;1185;60876;-68
2021/09/16 12:36:51;;;;;;;;;;;;;;;39.49;16.01;97367.25;116084;1184;60347;-68
2021/09/16 12:39:21;;;;;;;;;;;;;;;39.68;15.56;97357.92;116278;1181;72128;-69
2021/09/16 12:41:57;;;;;;;;;;;;;;;39.79;15.43;97350.89;116282;1181;69461;-68
2021/09/16 12:44:33;;;;;;;;;;;;;;;39.93;15.29;97348.10;116258;1178;69197;-70
2021/09/16 12:47:05;;;;;;;;;;;;;;;39.67;15.44;97353.00;116284;1181;60349;-67
2021/09/16 12:49:49;;;;;;;;;;;;;;;39.84;15.49;97350.65;116320;1177;60288;-69
2021/09/16 12:52:26;;;;;;;;;;;;;;;39.83;15.53;97346.11;116270;1181;72087;-69
2021/09/16 12:55:09;;;;;;;;;;;;;;;39.35;16.06;97349.79;116430;1178;69077;-69